sensor_id;sensor_type;location;lat;lon;timestamp;P1;durP1;ratioP1;P2;durP2;ratioP2
12181;SDS011;6154;51.550;12.138;2023-04-08T00:01:51;4.22;;;2.90;;
12181;SDS011;6154;51.550;12.138;2023-04-08T00:04:20;4.90;;;2.58;;
12181;SDS011;6154;51.550;12.138;2023-04-08T00:06:48;2.45;;;1.75;;
12181;SDS011;6154;51.550;12.138;2023-04-08T00:09:17;3.10;;;2.15;;
12181;SDS011;6154;51.550;12.138;2023-04-08T00:11:46;3.90;;;2.15;;
12181;SDS011;6154;51.550;12.138;2023-04-08T00:14:14;2.70;;;2.25;;
12181;SDS011;6154;51.550;12.138;2023-04-08T00:16:42;4.82;;;2.30;;
12181;SDS011;6154;51.550;12.138;2023-04-08T00:19:10;2.62;;;1.65;;
12181;SDS011;6154;51.550;12.138;2023-04-08T00:21:38;2.83;;;1.87;;
12181;SDS011;6154;51.550;12.138;2023-04-08T00:24:06;3.00;;;2.28;;
12181;SDS011;6154;51.550;12.138;2023-04-08T00:26:36;3.80;;;1.95;;
12181;SDS011;6154;51.550;12.138;2023-04-08T00:29:04;2.90;;;1.90;;
12181;SDS011;6154;51.550;12.138;2023-04-08T00:31:32;4.90;;;2.53;;
12181;SDS011;6154;51.550;12.138;2023-04-08T00:34:00;2.67;;;1.85;;
12181;SDS011;6154;51.550;12.138;2023-04-08T00:36:28;2.67;;;2.03;;
12181;SDS011;6154;51.550;12.138;2023-04-08T00:38:57;3.12;;;2.08;;
12181;SDS011;6154;51.550;12.138;2023-04-08T00:41:26;2.80;;;2.10;;
12181;SDS011;6154;51.550;12.138;2023-04-08T00:43:55;3.17;;;1.95;;
12181;SDS011;6154;51.550;12.138;2023-04-08T00:46:23;2.58;;;2.28;;
12181;SDS011;6154;51.550;12.138;2023-04-08T00:48:53;3.37;;;2.25;;
12181;SDS011;6154;51.550;12.138;2023-04-08T00:51:21;3.50;;;2.30;;
12181;SDS011;6154;51.550;12.138;2023-04-08T00:53:49;3.78;;;2.00;;
12181;SDS011;6154;51.550;12.138;2023-04-08T00:56:17;2.17;;;1.73;;
12181;SDS011;6154;51.550;12.138;2023-04-08T00:58:46;4.00;;;2.25;;
12181;SDS011;6154;51.550;12.138;2023-04-08T01:01:17;3.00;;;2.42;;
12181;SDS011;6154;51.550;12.138;2023-04-08T01:03:54;3.78;;;2.08;;
12181;SDS011;6154;51.550;12.138;2023-04-08T01:06:29;2.72;;;1.85;;
12181;SDS011;6154;51.550;12.138;2023-04-08T01:09:03;2.62;;;1.80;;
12181;SDS011;6154;51.550;12.138;2023-04-08T01:11:33;2.87;;;2.03;;
12181;SDS011;6154;51.550;12.138;2023-04-08T01:14:03;4.37;;;1.95;;
12181;SDS011;6154;51.550;12.138;2023-04-08T01:16:37;2.33;;;2.08;;
12181;SDS011;6154;51.550;12.138;2023-04-08T01:19:08;3.20;;;2.17;;
12181;SDS011;6154;51.550;12.138;2023-04-08T01:21:42;3.65;;;1.83;;
12181;SDS011;6154;51.550;12.138;2023-04-08T01:24:12;2.37;;;1.52;;
12181;SDS011;6154;51.550;12.138;2023-04-08T01:26:48;3.17;;;1.92;;
12181;SDS011;6154;51.550;12.138;2023-04-08T01:29:17;2.70;;;1.83;;
12181;SDS011;6154;51.550;12.138;2023-04-08T01:31:46;2.92;;;1.75;;
12181;SDS011;6154;51.550;12.138;2023-04-08T01:34:15;3.33;;;1.73;;
12181;SDS011;6154;51.550;12.138;2023-04-08T01:36:46;4.28;;;2.30;;
12181;SDS011;6154;51.550;12.138;2023-04-08T01:39:15;2.85;;;2.17;;
12181;SDS011;6154;51.550;12.138;2023-04-08T01:41:46;3.35;;;2.25;;
12181;SDS011;6154;51.550;12.138;2023-04-08T01:44:17;3.58;;;2.17;;
12181;SDS011;6154;51.550;12.138;2023-04-08T01:46:47;2.80;;;2.05;;
12181;SDS011;6154;51.550;12.138;2023-04-08T01:49:16;2.97;;;2.42;;
12181;SDS011;6154;51.550;12.138;2023-04-08T01:51:45;4.03;;;2.28;;
12181;SDS011;6154;51.550;12.138;2023-04-08T01:54:15;4.57;;;2.53;;
12181;SDS011;6154;51.550;12.138;2023-04-08T01:56:44;3.90;;;2.45;;
12181;SDS011;6154;51.550;12.138;2023-04-08T01:59:14;4.35;;;2.50;;
12181;SDS011;6154;51.550;12.138;2023-04-08T02:01:44;3.42;;;2.10;;
12181;SDS011;6154;51.550;12.138;2023-04-08T02:04:15;3.60;;;2.20;;
12181;SDS011;6154;51.550;12.138;2023-04-08T02:06:43;3.28;;;2.00;;
12181;SDS011;6154;51.550;12.138;2023-04-08T02:09:12;3.17;;;2.30;;
12181;SDS011;6154;51.550;12.138;2023-04-08T02:11:40;3.25;;;1.92;;
12181;SDS011;6154;51.550;12.138;2023-04-08T02:14:09;3.67;;;2.00;;
12181;SDS011;6154;51.550;12.138;2023-04-08T02:16:39;2.83;;;1.83;;
12181;SDS011;6154;51.550;12.138;2023-04-08T02:19:17;4.00;;;2.10;;
12181;SDS011;6154;51.550;12.138;2023-04-08T02:21:51;2.53;;;1.65;;
12181;SDS011;6154;51.550;12.138;2023-04-08T02:24:24;3.30;;;1.90;;
12181;SDS011;6154;51.550;12.138;2023-04-08T02:26:54;3.03;;;2.17;;
12181;SDS011;6154;51.550;12.138;2023-04-08T02:29:23;4.30;;;2.10;;
12181;SDS011;6154;51.550;12.138;2023-04-08T02:31:54;1.98;;;1.40;;
12181;SDS011;6154;51.550;12.138;2023-04-08T02:34:24;5.03;;;2.08;;
12181;SDS011;6154;51.550;12.138;2023-04-08T02:36:52;3.00;;;2.08;;
12181;SDS011;6154;51.550;12.138;2023-04-08T02:39:20;2.70;;;1.95;;
12181;SDS011;6154;51.550;12.138;2023-04-08T02:41:49;5.45;;;2.15;;
12181;SDS011;6154;51.550;12.138;2023-04-08T02:44:20;4.82;;;2.30;;
12181;SDS011;6154;51.550;12.138;2023-04-08T02:46:50;4.10;;;2.70;;
12181;SDS011;6154;51.550;12.138;2023-04-08T02:49:20;3.50;;;2.37;;
12181;SDS011;6154;51.550;12.138;2023-04-08T02:51:48;3.72;;;2.05;;
12181;SDS011;6154;51.550;12.138;2023-04-08T02:54:16;4.97;;;2.60;;
12181;SDS011;6154;51.550;12.138;2023-04-08T02:56:44;5.93;;;2.67;;
12181;SDS011;6154;51.550;12.138;2023-04-08T02:59:12;5.00;;;2.28;;
12181;SDS011;6154;51.550;12.138;2023-04-08T03:01:41;3.90;;;2.20;;
12181;SDS011;6154;51.550;12.138;2023-04-08T03:04:09;5.53;;;2.90;;
12181;SDS011;6154;51.550;12.138;2023-04-08T03:06:38;4.20;;;2.45;;
12181;SDS011;6154;51.550;12.138;2023-04-08T03:09:07;2.35;;;2.08;;
12181;SDS011;6154;51.550;12.138;2023-04-08T03:11:35;4.85;;;2.62;;
12181;SDS011;6154;51.550;12.138;2023-04-08T03:14:03;5.37;;;2.60;;
12181;SDS011;6154;51.550;12.138;2023-04-08T03:16:31;4.62;;;3.20;;
12181;SDS011;6154;51.550;12.138;2023-04-08T03:18:59;6.87;;;2.87;;
12181;SDS011;6154;51.550;12.138;2023-04-08T03:21:27;3.95;;;2.42;;
12181;SDS011;6154;51.550;12.138;2023-04-08T03:23:58;5.20;;;2.83;;
12181;SDS011;6154;51.550;12.138;2023-04-08T03:26:26;4.95;;;3.00;;
12181;SDS011;6154;51.550;12.138;2023-04-08T03:28:54;8.85;;;2.65;;
12181;SDS011;6154;51.550;12.138;2023-04-08T03:31:24;4.43;;;2.87;;
12181;SDS011;6154;51.550;12.138;2023-04-08T03:33:52;4.43;;;2.75;;
12181;SDS011;6154;51.550;12.138;2023-04-08T03:36:21;5.47;;;2.78;;
12181;SDS011;6154;51.550;12.138;2023-04-08T03:38:49;6.82;;;3.17;;
12181;SDS011;6154;51.550;12.138;2023-04-08T03:41:19;5.22;;;2.92;;
12181;SDS011;6154;51.550;12.138;2023-04-08T03:43:46;5.45;;;3.15;;
12181;SDS011;6154;51.550;12.138;2023-04-08T03:46:15;6.03;;;2.75;;
12181;SDS011;6154;51.550;12.138;2023-04-08T03:48:43;6.00;;;3.58;;
12181;SDS011;6154;51.550;12.138;2023-04-08T03:51:11;6.53;;;3.45;;
12181;SDS011;6154;51.550;12.138;2023-04-08T03:53:39;5.95;;;3.37;;
12181;SDS011;6154;51.550;12.138;2023-04-08T03:56:07;7.40;;;3.08;;
12181;SDS011;6154;51.550;12.138;2023-04-08T03:58:36;8.00;;;4.03;;
12181;SDS011;6154;51.550;12.138;2023-04-08T04:01:05;5.53;;;2.85;;
12181;SDS011;6154;51.550;12.138;2023-04-08T04:03:33;7.12;;;2.90;;
12181;SDS011;6154;51.550;12.138;2023-04-08T04:06:01;5.22;;;3.33;;
12181;SDS011;6154;51.550;12.138;2023-04-08T04:08:29;5.80;;;3.00;;
12181;SDS011;6154;51.550;12.138;2023-04-08T04:10:57;6.55;;;3.50;;
12181;SDS011;6154;51.550;12.138;2023-04-08T04:13:25;6.40;;;3.50;;
12181;SDS011;6154;51.550;12.138;2023-04-08T04:15:55;4.47;;;3.08;;
12181;SDS011;6154;51.550;12.138;2023-04-08T04:18:23;4.40;;;2.85;;
12181;SDS011;6154;51.550;12.138;2023-04-08T04:20:51;8.65;;;3.95;;
12181;SDS011;6154;51.550;12.138;2023-04-08T04:23:19;5.72;;;2.92;;
12181;SDS011;6154;51.550;12.138;2023-04-08T04:25:50;5.93;;;3.10;;
12181;SDS011;6154;51.550;12.138;2023-04-08T04:28:18;3.15;;;2.60;;
12181;SDS011;6154;51.550;12.138;2023-04-08T04:30:46;4.50;;;2.78;;
12181;SDS011;6154;51.550;12.138;2023-04-08T04:33:16;4.93;;;2.37;;
12181;SDS011;6154;51.550;12.138;2023-04-08T04:35:44;4.57;;;2.42;;
12181;SDS011;6154;51.550;12.138;2023-04-08T04:38:12;3.25;;;2.25;;
12181;SDS011;6154;51.550;12.138;2023-04-08T04:40:40;3.37;;;2.22;;
12181;SDS011;6154;51.550;12.138;2023-04-08T04:43:09;3.22;;;2.28;;
12181;SDS011;6154;51.550;12.138;2023-04-08T04:45:37;3.53;;;1.65;;
12181;SDS011;6154;51.550;12.138;2023-04-08T04:48:06;3.80;;;2.15;;
12181;SDS011;6154;51.550;12.138;2023-04-08T04:50:35;4.50;;;2.50;;
12181;SDS011;6154;51.550;12.138;2023-04-08T04:53:03;4.18;;;2.15;;
12181;SDS011;6154;51.550;12.138;2023-04-08T04:55:32;2.87;;;2.17;;
12181;SDS011;6154;51.550;12.138;2023-04-08T04:58:00;3.78;;;2.40;;
12181;SDS011;6154;51.550;12.138;2023-04-08T05:00:28;3.40;;;1.95;;
12181;SDS011;6154;51.550;12.138;2023-04-08T05:02:56;4.55;;;2.60;;
12181;SDS011;6154;51.550;12.138;2023-04-08T05:05:24;5.00;;;2.55;;
12181;SDS011;6154;51.550;12.138;2023-04-08T05:07:54;4.30;;;2.67;;
12181;SDS011;6154;51.550;12.138;2023-04-08T05:10:22;5.95;;;2.55;;
12181;SDS011;6154;51.550;12.138;2023-04-08T05:12:50;2.45;;;1.85;;
12181;SDS011;6154;51.550;12.138;2023-04-08T05:15:18;4.78;;;2.60;;
12181;SDS011;6154;51.550;12.138;2023-04-08T05:17:47;4.12;;;2.10;;
12181;SDS011;6154;51.550;12.138;2023-04-08T05:20:15;3.67;;;2.65;;
12181;SDS011;6154;51.550;12.138;2023-04-08T05:22:43;3.72;;;2.50;;
12181;SDS011;6154;51.550;12.138;2023-04-08T05:25:13;5.40;;;2.30;;
12181;SDS011;6154;51.550;12.138;2023-04-08T05:27:41;3.15;;;2.15;;
12181;SDS011;6154;51.550;12.138;2023-04-08T05:30:10;4.75;;;2.22;;
12181;SDS011;6154;51.550;12.138;2023-04-08T05:32:38;3.60;;;2.05;;
12181;SDS011;6154;51.550;12.138;2023-04-08T05:35:07;3.00;;;1.87;;
12181;SDS011;6154;51.550;12.138;2023-04-08T05:37:36;4.57;;;2.37;;
12181;SDS011;6154;51.550;12.138;2023-04-08T05:40:05;3.03;;;2.40;;
12181;SDS011;6154;51.550;12.138;2023-04-08T05:42:35;4.32;;;2.65;;
12181;SDS011;6154;51.550;12.138;2023-04-08T05:45:03;5.20;;;2.80;;
12181;SDS011;6154;51.550;12.138;2023-04-08T05:47:32;4.68;;;3.08;;
12181;SDS011;6154;51.550;12.138;2023-04-08T05:50:00;4.05;;;1.90;;
12181;SDS011;6154;51.550;12.138;2023-04-08T05:52:28;5.53;;;2.62;;
12181;SDS011;6154;51.550;12.138;2023-04-08T05:54:56;6.47;;;3.12;;
12181;SDS011;6154;51.550;12.138;2023-04-08T05:57:24;3.60;;;2.37;;
12181;SDS011;6154;51.550;12.138;2023-04-08T05:59:53;7.87;;;3.00;;
12181;SDS011;6154;51.550;12.138;2023-04-08T06:02:21;5.37;;;3.12;;
12181;SDS011;6154;51.550;12.138;2023-04-08T06:04:50;4.57;;;3.08;;
12181;SDS011;6154;51.550;12.138;2023-04-08T06:07:18;6.57;;;2.95;;
12181;SDS011;6154;51.550;12.138;2023-04-08T06:09:46;5.90;;;3.15;;
12181;SDS011;6154;51.550;12.138;2023-04-08T06:12:14;6.65;;;3.40;;
12181;SDS011;6154;51.550;12.138;2023-04-08T06:14:42;4.80;;;3.25;;
12181;SDS011;6154;51.550;12.138;2023-04-08T06:17:11;4.80;;;3.08;;
12181;SDS011;6154;51.550;12.138;2023-04-08T06:19:39;6.87;;;3.95;;
12181;SDS011;6154;51.550;12.138;2023-04-08T06:22:07;4.90;;;2.87;;
12181;SDS011;6154;51.550;12.138;2023-04-08T06:24:35;4.57;;;2.95;;
12181;SDS011;6154;51.550;12.138;2023-04-08T06:27:04;4.22;;;2.55;;
12181;SDS011;6154;51.550;12.138;2023-04-08T06:29:34;5.35;;;3.17;;
12181;SDS011;6154;51.550;12.138;2023-04-08T06:32:02;5.22;;;2.72;;
12181;SDS011;6154;51.550;12.138;2023-04-08T06:34:33;5.47;;;2.83;;
12181;SDS011;6154;51.550;12.138;2023-04-08T06:37:01;4.87;;;2.65;;
12181;SDS011;6154;51.550;12.138;2023-04-08T06:39:29;4.65;;;3.12;;
12181;SDS011;6154;51.550;12.138;2023-04-08T06:41:57;4.37;;;2.92;;
12181;SDS011;6154;51.550;12.138;2023-04-08T06:44:26;4.22;;;2.72;;
12181;SDS011;6154;51.550;12.138;2023-04-08T06:46:54;6.20;;;3.00;;
12181;SDS011;6154;51.550;12.138;2023-04-08T06:49:22;2.87;;;2.55;;
12181;SDS011;6154;51.550;12.138;2023-04-08T06:51:53;4.80;;;2.83;;
12181;SDS011;6154;51.550;12.138;2023-04-08T06:54:21;3.92;;;2.70;;
12181;SDS011;6154;51.550;12.138;2023-04-08T06:56:50;4.97;;;2.72;;
12181;SDS011;6154;51.550;12.138;2023-04-08T06:59:18;3.72;;;2.28;;
12181;SDS011;6154;51.550;12.138;2023-04-08T07:01:46;3.72;;;2.75;;
12181;SDS011;6154;51.550;12.138;2023-04-08T07:04:14;5.82;;;3.28;;
12181;SDS011;6154;51.550;12.138;2023-04-08T07:06:42;5.43;;;3.17;;
12181;SDS011;6154;51.550;12.138;2023-04-08T07:09:12;5.32;;;3.53;;
12181;SDS011;6154;51.550;12.138;2023-04-08T07:11:40;8.77;;;4.18;;
12181;SDS011;6154;51.550;12.138;2023-04-08T07:14:08;8.07;;;4.53;;
12181;SDS011;6154;51.550;12.138;2023-04-08T07:16:36;6.45;;;4.18;;
12181;SDS011;6154;51.550;12.138;2023-04-08T07:19:04;9.77;;;5.07;;
12181;SDS011;6154;51.550;12.138;2023-04-08T07:21:32;9.40;;;4.80;;
12181;SDS011;6154;51.550;12.138;2023-04-08T07:24:01;9.25;;;5.25;;
12181;SDS011;6154;51.550;12.138;2023-04-08T07:26:30;9.25;;;5.20;;
12181;SDS011;6154;51.550;12.138;2023-04-08T07:28:58;7.62;;;5.20;;
12181;SDS011;6154;51.550;12.138;2023-04-08T07:31:26;16.77;;;7.12;;
12181;SDS011;6154;51.550;12.138;2023-04-08T07:33:55;14.05;;;6.12;;
12181;SDS011;6154;51.550;12.138;2023-04-08T07:36:23;9.35;;;5.60;;
12181;SDS011;6154;51.550;12.138;2023-04-08T07:38:52;9.77;;;5.75;;
12181;SDS011;6154;51.550;12.138;2023-04-08T07:41:20;16.12;;;7.18;;
12181;SDS011;6154;51.550;12.138;2023-04-08T07:43:49;11.10;;;6.75;;
12181;SDS011;6154;51.550;12.138;2023-04-08T07:46:20;11.40;;;6.12;;
12181;SDS011;6154;51.550;12.138;2023-04-08T07:48:48;12.77;;;6.55;;
12181;SDS011;6154;51.550;12.138;2023-04-08T07:51:18;12.98;;;6.55;;
12181;SDS011;6154;51.550;12.138;2023-04-08T07:53:47;13.10;;;6.62;;
12181;SDS011;6154;51.550;12.138;2023-04-08T07:56:15;13.27;;;6.03;;
12181;SDS011;6154;51.550;12.138;2023-04-08T07:58:45;12.13;;;6.62;;
12181;SDS011;6154;51.550;12.138;2023-04-08T08:01:17;15.60;;;7.18;;
12181;SDS011;6154;51.550;12.138;2023-04-08T08:03:47;12.70;;;6.03;;
12181;SDS011;6154;51.550;12.138;2023-04-08T08:06:15;12.27;;;6.05;;
12181;SDS011;6154;51.550;12.138;2023-04-08T08:08:43;14.25;;;6.65;;
12181;SDS011;6154;51.550;12.138;2023-04-08T08:11:12;14.23;;;6.05;;
12181;SDS011;6154;51.550;12.138;2023-04-08T08:13:40;12.57;;;6.20;;
12181;SDS011;6154;51.550;12.138;2023-04-08T08:16:08;11.68;;;6.45;;
12181;SDS011;6154;51.550;12.138;2023-04-08T08:18:39;16.87;;;7.60;;
12181;SDS011;6154;51.550;12.138;2023-04-08T08:21:07;15.40;;;7.28;;
12181;SDS011;6154;51.550;12.138;2023-04-08T08:23:36;15.18;;;7.85;;
12181;SDS011;6154;51.550;12.138;2023-04-08T08:26:05;16.25;;;8.27;;
12181;SDS011;6154;51.550;12.138;2023-04-08T08:28:35;15.75;;;8.27;;
12181;SDS011;6154;51.550;12.138;2023-04-08T08:31:04;22.25;;;9.57;;
12181;SDS011;6154;51.550;12.138;2023-04-08T08:33:32;15.65;;;8.57;;
12181;SDS011;6154;51.550;12.138;2023-04-08T08:36:02;14.05;;;8.13;;
12181;SDS011;6154;51.550;12.138;2023-04-08T08:38:32;20.12;;;10.10;;
12181;SDS011;6154;51.550;12.138;2023-04-08T08:41:01;17.10;;;8.27;;
12181;SDS011;6154;51.550;12.138;2023-04-08T08:43:30;17.87;;;9.27;;
12181;SDS011;6154;51.550;12.138;2023-04-08T08:45:59;19.17;;;10.05;;
12181;SDS011;6154;51.550;12.138;2023-04-08T08:48:27;15.48;;;8.13;;
12181;SDS011;6154;51.550;12.138;2023-04-08T08:50:56;14.82;;;8.25;;
12181;SDS011;6154;51.550;12.138;2023-04-08T08:53:28;16.35;;;8.05;;
12181;SDS011;6154;51.550;12.138;2023-04-08T08:56:01;17.83;;;8.57;;
12181;SDS011;6154;51.550;12.138;2023-04-08T08:58:44;16.10;;;8.38;;
12181;SDS011;6154;51.550;12.138;2023-04-08T09:01:29;17.70;;;8.85;;
12181;SDS011;6154;51.550;12.138;2023-04-08T09:04:06;15.65;;;8.48;;
12181;SDS011;6154;51.550;12.138;2023-04-08T09:06:40;20.65;;;8.93;;
12181;SDS011;6154;51.550;12.138;2023-04-08T09:09:09;16.75;;;8.73;;
12181;SDS011;6154;51.550;12.138;2023-04-08T09:11:38;18.10;;;9.55;;
12181;SDS011;6154;51.550;12.138;2023-04-08T09:14:20;17.85;;;10.18;;
12181;SDS011;6154;51.550;12.138;2023-04-08T09:16:49;16.12;;;8.95;;
12181;SDS011;6154;51.550;12.138;2023-04-08T09:19:18;16.10;;;8.52;;
12181;SDS011;6154;51.550;12.138;2023-04-08T09:21:50;14.55;;;7.43;;
12181;SDS011;6154;51.550;12.138;2023-04-08T09:24:33;16.85;;;10.10;;
12181;SDS011;6154;51.550;12.138;2023-04-08T09:27:03;17.98;;;9.15;;
12181;SDS011;6154;51.550;12.138;2023-04-08T09:29:31;18.33;;;8.60;;
12181;SDS011;6154;51.550;12.138;2023-04-08T09:32:05;16.17;;;8.55;;
12181;SDS011;6154;51.550;12.138;2023-04-08T09:34:33;15.10;;;9.05;;
12181;SDS011;6154;51.550;12.138;2023-04-08T09:37:02;16.87;;;8.48;;
12181;SDS011;6154;51.550;12.138;2023-04-08T09:39:30;17.27;;;9.50;;
12181;SDS011;6154;51.550;12.138;2023-04-08T09:41:59;17.48;;;8.93;;
12181;SDS011;6154;51.550;12.138;2023-04-08T09:44:35;15.23;;;8.65;;
12181;SDS011;6154;51.550;12.138;2023-04-08T09:47:07;18.90;;;10.13;;
12181;SDS011;6154;51.550;12.138;2023-04-08T09:49:39;18.12;;;9.38;;
12181;SDS011;6154;51.550;12.138;2023-04-08T09:52:14;19.75;;;9.48;;
12181;SDS011;6154;51.550;12.138;2023-04-08T09:54:50;16.73;;;9.15;;
12181;SDS011;6154;51.550;12.138;2023-04-08T09:57:24;15.80;;;8.70;;
12181;SDS011;6154;51.550;12.138;2023-04-08T09:59:59;14.90;;;9.75;;
12181;SDS011;6154;51.550;12.138;2023-04-08T10:02:40;15.13;;;8.73;;
12181;SDS011;6154;51.550;12.138;2023-04-08T10:05:16;16.85;;;8.30;;
12181;SDS011;6154;51.550;12.138;2023-04-08T10:07:45;18.15;;;8.70;;
12181;SDS011;6154;51.550;12.138;2023-04-08T10:10:13;19.75;;;9.85;;
12181;SDS011;6154;51.550;12.138;2023-04-08T10:12:43;17.95;;;9.18;;
12181;SDS011;6154;51.550;12.138;2023-04-08T10:15:21;14.75;;;9.27;;
12181;SDS011;6154;51.550;12.138;2023-04-08T10:17:50;14.07;;;8.43;;
12181;SDS011;6154;51.550;12.138;2023-04-08T10:23:11;15.55;;;8.88;;
12181;SDS011;6154;51.550;12.138;2023-04-08T10:25:40;14.55;;;9.05;;
12181;SDS011;6154;51.550;12.138;2023-04-08T10:28:25;15.68;;;8.85;;
12181;SDS011;6154;51.550;12.138;2023-04-08T10:30:53;16.65;;;8.60;;
12181;SDS011;6154;51.550;12.138;2023-04-08T10:33:24;17.55;;;8.68;;
12181;SDS011;6154;51.550;12.138;2023-04-08T10:36:07;16.05;;;9.10;;
12181;SDS011;6154;51.550;12.138;2023-04-08T10:38:37;17.50;;;8.93;;
12181;SDS011;6154;51.550;12.138;2023-04-08T10:41:05;14.45;;;9.05;;
12181;SDS011;6154;51.550;12.138;2023-04-08T10:43:35;15.10;;;8.15;;
12181;SDS011;6154;51.550;12.138;2023-04-08T10:46:04;15.80;;;8.27;;
12181;SDS011;6154;51.550;12.138;2023-04-08T10:48:32;13.95;;;8.48;;
12181;SDS011;6154;51.550;12.138;2023-04-08T10:51:00;12.88;;;8.32;;
12181;SDS011;6154;51.550;12.138;2023-04-08T10:53:31;13.85;;;8.23;;
12181;SDS011;6154;51.550;12.138;2023-04-08T10:56:03;14.07;;;8.90;;
12181;SDS011;6154;51.550;12.138;2023-04-08T10:58:34;16.48;;;9.00;;
12181;SDS011;6154;51.550;12.138;2023-04-08T11:01:03;13.98;;;8.95;;
12181;SDS011;6154;51.550;12.138;2023-04-08T11:03:35;15.18;;;9.32;;
12181;SDS011;6154;51.550;12.138;2023-04-08T11:06:03;15.93;;;8.15;;
12181;SDS011;6154;51.550;12.138;2023-04-08T11:08:33;16.45;;;8.60;;
12181;SDS011;6154;51.550;12.138;2023-04-08T11:11:03;13.98;;;8.30;;
12181;SDS011;6154;51.550;12.138;2023-04-08T11:13:36;14.05;;;9.02;;
12181;SDS011;6154;51.550;12.138;2023-04-08T11:16:17;15.88;;;8.60;;
12181;SDS011;6154;51.550;12.138;2023-04-08T11:18:47;15.13;;;8.02;;
12181;SDS011;6154;51.550;12.138;2023-04-08T11:21:17;16.10;;;8.82;;
12181;SDS011;6154;51.550;12.138;2023-04-08T11:23:47;12.27;;;8.32;;
12181;SDS011;6154;51.550;12.138;2023-04-08T11:26:17;15.73;;;8.55;;
12181;SDS011;6154;51.550;12.138;2023-04-08T11:28:48;14.25;;;8.18;;
12181;SDS011;6154;51.550;12.138;2023-04-08T11:31:18;13.15;;;7.78;;
12181;SDS011;6154;51.550;12.138;2023-04-08T11:33:51;12.00;;;7.62;;
12181;SDS011;6154;51.550;12.138;2023-04-08T11:36:21;12.75;;;8.40;;
12181;SDS011;6154;51.550;12.138;2023-04-08T11:38:49;15.50;;;8.20;;
12181;SDS011;6154;51.550;12.138;2023-04-08T11:41:20;12.80;;;7.53;;
12181;SDS011;6154;51.550;12.138;2023-04-08T11:43:56;15.40;;;8.77;;
12181;SDS011;6154;51.550;12.138;2023-04-08T11:46:24;13.93;;;7.30;;
12181;SDS011;6154;51.550;12.138;2023-04-08T11:48:57;12.60;;;7.62;;
12181;SDS011;6154;51.550;12.138;2023-04-08T11:51:26;12.18;;;7.32;;
12181;SDS011;6154;51.550;12.138;2023-04-08T11:53:54;12.80;;;7.32;;
12181;SDS011;6154;51.550;12.138;2023-04-08T11:56:23;14.05;;;8.13;;
12181;SDS011;6154;51.550;12.138;2023-04-08T11:58:51;11.25;;;6.82;;
12181;SDS011;6154;51.550;12.138;2023-04-08T12:01:21;16.80;;;8.93;;
12181;SDS011;6154;51.550;12.138;2023-04-08T12:03:53;15.82;;;9.52;;
12181;SDS011;6154;51.550;12.138;2023-04-08T12:06:23;15.30;;;8.13;;
12181;SDS011;6154;51.550;12.138;2023-04-08T12:08:54;11.73;;;7.28;;
12181;SDS011;6154;51.550;12.138;2023-04-08T12:11:22;12.30;;;7.53;;
12181;SDS011;6154;51.550;12.138;2023-04-08T12:13:51;12.95;;;7.60;;
12181;SDS011;6154;51.550;12.138;2023-04-08T12:16:21;12.18;;;7.15;;
12181;SDS011;6154;51.550;12.138;2023-04-08T12:18:49;10.60;;;6.75;;
12181;SDS011;6154;51.550;12.138;2023-04-08T12:21:17;15.20;;;8.23;;
12181;SDS011;6154;51.550;12.138;2023-04-08T12:23:46;15.40;;;7.32;;
12181;SDS011;6154;51.550;12.138;2023-04-08T12:26:14;10.43;;;6.75;;
12181;SDS011;6154;51.550;12.138;2023-04-08T12:28:43;11.70;;;6.60;;
12181;SDS011;6154;51.550;12.138;2023-04-08T12:31:11;10.40;;;6.18;;
12181;SDS011;6154;51.550;12.138;2023-04-08T12:33:41;8.75;;;6.10;;
12181;SDS011;6154;51.550;12.138;2023-04-08T12:36:09;15.18;;;7.25;;
12181;SDS011;6154;51.550;12.138;2023-04-08T12:38:39;11.70;;;7.75;;
12181;SDS011;6154;51.550;12.138;2023-04-08T12:41:07;13.45;;;7.20;;
12181;SDS011;6154;51.550;12.138;2023-04-08T12:43:35;15.60;;;7.72;;
12181;SDS011;6154;51.550;12.138;2023-04-08T12:46:05;12.77;;;7.07;;
12181;SDS011;6154;51.550;12.138;2023-04-08T12:48:33;11.27;;;7.15;;
12181;SDS011;6154;51.550;12.138;2023-04-08T12:51:02;13.52;;;7.30;;
12181;SDS011;6154;51.550;12.138;2023-04-08T12:53:31;11.65;;;6.45;;
12181;SDS011;6154;51.550;12.138;2023-04-08T12:55:59;12.07;;;7.28;;
12181;SDS011;6154;51.550;12.138;2023-04-08T12:58:27;12.93;;;7.37;;
12181;SDS011;6154;51.550;12.138;2023-04-08T13:00:55;11.35;;;6.82;;
12181;SDS011;6154;51.550;12.138;2023-04-08T13:03:23;13.07;;;7.53;;
12181;SDS011;6154;51.550;12.138;2023-04-08T13:05:53;10.30;;;5.97;;
12181;SDS011;6154;51.550;12.138;2023-04-08T13:08:23;13.70;;;7.62;;
12181;SDS011;6154;51.550;12.138;2023-04-08T13:10:51;11.82;;;7.25;;
12181;SDS011;6154;51.550;12.138;2023-04-08T13:13:19;11.98;;;7.32;;
12181;SDS011;6154;51.550;12.138;2023-04-08T13:15:48;13.55;;;6.90;;
12181;SDS011;6154;51.550;12.138;2023-04-08T13:18:16;13.43;;;7.15;;
12181;SDS011;6154;51.550;12.138;2023-04-08T13:20:44;15.25;;;7.20;;
12181;SDS011;6154;51.550;12.138;2023-04-08T13:23:12;11.95;;;6.80;;
12181;SDS011;6154;51.550;12.138;2023-04-08T13:25:44;12.40;;;7.30;;
12181;SDS011;6154;51.550;12.138;2023-04-08T13:28:13;11.23;;;6.25;;
12181;SDS011;6154;51.550;12.138;2023-04-08T13:30:41;12.95;;;7.32;;
12181;SDS011;6154;51.550;12.138;2023-04-08T13:33:12;13.40;;;7.20;;
12181;SDS011;6154;51.550;12.138;2023-04-08T13:35:40;10.38;;;7.15;;
12181;SDS011;6154;51.550;12.138;2023-04-08T13:38:08;11.82;;;7.10;;
12181;SDS011;6154;51.550;12.138;2023-04-08T13:40:36;11.48;;;7.15;;
12181;SDS011;6154;51.550;12.138;2023-04-08T13:43:06;11.10;;;7.28;;
12181;SDS011;6154;51.550;12.138;2023-04-08T13:45:35;11.98;;;7.55;;
12181;SDS011;6154;51.550;12.138;2023-04-08T13:48:03;9.57;;;6.22;;
12181;SDS011;6154;51.550;12.138;2023-04-08T13:50:32;13.70;;;7.37;;
12181;SDS011;6154;51.550;12.138;2023-04-08T13:53:00;13.00;;;7.55;;
12181;SDS011;6154;51.550;12.138;2023-04-08T13:55:28;10.60;;;6.90;;
12181;SDS011;6154;51.550;12.138;2023-04-08T13:57:56;11.60;;;6.90;;
12181;SDS011;6154;51.550;12.138;2023-04-08T14:00:25;12.52;;;7.10;;
12181;SDS011;6154;51.550;12.138;2023-04-08T14:02:54;14.77;;;6.70;;
12181;SDS011;6154;51.550;12.138;2023-04-08T14:05:22;10.20;;;6.72;;
12181;SDS011;6154;51.550;12.138;2023-04-08T14:07:50;15.18;;;7.47;;
12181;SDS011;6154;51.550;12.138;2023-04-08T14:10:20;12.00;;;7.25;;
12181;SDS011;6154;51.550;12.138;2023-04-08T14:12:48;10.23;;;6.65;;
12181;SDS011;6154;51.550;12.138;2023-04-08T14:15:16;8.45;;;6.25;;
12181;SDS011;6154;51.550;12.138;2023-04-08T14:17:46;11.27;;;6.62;;
12181;SDS011;6154;51.550;12.138;2023-04-08T14:20:14;11.75;;;7.25;;
12181;SDS011;6154;51.550;12.138;2023-04-08T14:22:42;14.27;;;8.15;;
12181;SDS011;6154;51.550;12.138;2023-04-08T14:25:10;11.30;;;7.10;;
12181;SDS011;6154;51.550;12.138;2023-04-08T14:27:38;10.70;;;7.00;;
12181;SDS011;6154;51.550;12.138;2023-04-08T14:30:23;9.85;;;6.93;;
12181;SDS011;6154;51.550;12.138;2023-04-08T14:32:54;10.82;;;6.40;;
12181;SDS011;6154;51.550;12.138;2023-04-08T14:35:23;12.98;;;7.20;;
12181;SDS011;6154;51.550;12.138;2023-04-08T14:37:51;11.05;;;7.03;;
12181;SDS011;6154;51.550;12.138;2023-04-08T14:40:19;10.95;;;6.80;;
12181;SDS011;6154;51.550;12.138;2023-04-08T14:42:47;13.23;;;6.55;;
12181;SDS011;6154;51.550;12.138;2023-04-08T14:45:16;11.12;;;5.90;;
12181;SDS011;6154;51.550;12.138;2023-04-08T14:47:44;12.32;;;6.75;;
12181;SDS011;6154;51.550;12.138;2023-04-08T14:50:14;10.93;;;6.65;;
12181;SDS011;6154;51.550;12.138;2023-04-08T14:52:42;11.12;;;6.82;;
12181;SDS011;6154;51.550;12.138;2023-04-08T14:55:14;10.50;;;6.70;;
12181;SDS011;6154;51.550;12.138;2023-04-08T14:57:42;10.18;;;6.50;;